sensor_id;sensor_type;location;lat;lon;timestamp;temperature;humidity
11762;DHT22;5938;47.098;15.474;2023-04-29T00:00:23;9.30;99.90
11762;DHT22;5938;47.098;15.474;2023-04-29T00:04:26;9.30;99.90
11762;DHT22;5938;47.098;15.474;2023-04-29T00:08:31;9.20;99.90
11762;DHT22;5938;47.098;15.474;2023-04-29T00:12:35;9.20;99.90
11762;DHT22;5938;47.098;15.474;2023-04-29T00:16:39;9.10;99.90
11762;DHT22;5938;47.098;15.474;2023-04-29T00:20:42;9.30;99.90
11762;DHT22;5938;47.098;15.474;2023-04-29T00:24:47;9.30;99.90
11762;DHT22;5938;47.098;15.474;2023-04-29T00:28:50;9.30;99.90
11762;DHT22;5938;47.098;15.474;2023-04-29T00:32:53;9.20;99.90
11762;DHT22;5938;47.098;15.474;2023-04-29T00:36:57;9.00;99.90
11762;DHT22;5938;47.098;15.474;2023-04-29T00:41:01;9.00;99.90
11762;DHT22;5938;47.098;15.474;2023-04-29T00:45:06;9.10;99.90
11762;DHT22;5938;47.098;15.474;2023-04-29T00:49:10;9.20;99.90
11762;DHT22;5938;47.098;15.474;2023-04-29T00:53:16;9.20;99.90
11762;DHT22;5938;47.098;15.474;2023-04-29T00:57:21;9.10;99.90
11762;DHT22;5938;47.098;15.474;2023-04-29T01:01:26;8.90;99.90
11762;DHT22;5938;47.098;15.474;2023-04-29T01:05:29;8.80;99.90
11762;DHT22;5938;47.098;15.474;2023-04-29T01:09:49;8.70;99.90
11762;DHT22;5938;47.098;15.474;2023-04-29T01:13:59;8.60;99.90
11762;DHT22;5938;47.098;15.474;2023-04-29T01:18:06;8.50;99.90
11762;DHT22;5938;47.098;15.474;2023-04-29T01:22:13;8.40;99.90
11762;DHT22;5938;47.098;15.474;2023-04-29T01:26:20;8.60;99.90
11762;DHT22;5938;47.098;15.474;2023-04-29T01:30:31;8.60;99.90
11762;DHT22;5938;47.098;15.474;2023-04-29T01:34:46;8.70;99.90
11762;DHT22;5938;47.098;15.474;2023-04-29T01:39:00;8.70;99.90
11762;DHT22;5938;47.098;15.474;2023-04-29T01:43:09;8.60;99.90
11762;DHT22;5938;47.098;15.474;2023-04-29T01:47:13;8.60;99.90
11762;DHT22;5938;47.098;15.474;2023-04-29T01:51:17;8.60;99.90
11762;DHT22;5938;47.098;15.474;2023-04-29T01:55:20;8.60;99.90
11762;DHT22;5938;47.098;15.474;2023-04-29T01:59:25;8.60;99.90
11762;DHT22;5938;47.098;15.474;2023-04-29T02:03:31;8.70;99.90
11762;DHT22;5938;47.098;15.474;2023-04-29T02:07:35;8.80;99.90
11762;DHT22;5938;47.098;15.474;2023-04-29T02:11:38;8.80;99.90
11762;DHT22;5938;47.098;15.474;2023-04-29T02:15:43;8.70;99.90
11762;DHT22;5938;47.098;15.474;2023-04-29T02:19:46;8.60;99.90
11762;DHT22;5938;47.098;15.474;2023-04-29T02:23:50;8.70;99.90
11762;DHT22;5938;47.098;15.474;2023-04-29T02:27:55;8.50;99.90
11762;DHT22;5938;47.098;15.474;2023-04-29T02:31:59;8.30;99.90
11762;DHT22;5938;47.098;15.474;2023-04-29T02:36:03;8.20;99.90
11762;DHT22;5938;47.098;15.474;2023-04-29T02:40:08;8.00;99.90
11762;DHT22;5938;47.098;15.474;2023-04-29T02:44:12;7.90;99.90
11762;DHT22;5938;47.098;15.474;2023-04-29T02:48:16;7.90;99.90
11762;DHT22;5938;47.098;15.474;2023-04-29T02:52:20;7.80;99.90
11762;DHT22;5938;47.098;15.474;2023-04-29T02:56:23;7.70;99.90
11762;DHT22;5938;47.098;15.474;2023-04-29T03:00:26;7.50;99.90
11762;DHT22;5938;47.098;15.474;2023-04-29T03:04:31;7.40;99.90
11762;DHT22;5938;47.098;15.474;2023-04-29T03:08:34;7.40;99.90
11762;DHT22;5938;47.098;15.474;2023-04-29T03:12:38;7.30;99.90
11762;DHT22;5938;47.098;15.474;2023-04-29T03:16:41;7.30;99.90
11762;DHT22;5938;47.098;15.474;2023-04-29T03:20:46;7.20;99.90
11762;DHT22;5938;47.098;15.474;2023-04-29T03:24:50;7.30;99.90
11762;DHT22;5938;47.098;15.474;2023-04-29T03:28:53;7.30;99.90
11762;DHT22;5938;47.098;15.474;2023-04-29T03:32:56;7.40;99.90
11762;DHT22;5938;47.098;15.474;2023-04-29T03:37:01;7.50;99.90
11762;DHT22;5938;47.098;15.474;2023-04-29T03:41:04;7.60;99.90
11762;DHT22;5938;47.098;15.474;2023-04-29T03:45:09;7.60;99.90
11762;DHT22;5938;47.098;15.474;2023-04-29T03:49:14;7.60;99.90
11762;DHT22;5938;47.098;15.474;2023-04-29T03:53:18;7.70;99.90
11762;DHT22;5938;47.098;15.474;2023-04-29T03:57:23;7.70;99.90
11762;DHT22;5938;47.098;15.474;2023-04-29T04:01:26;7.80;99.90
11762;DHT22;5938;47.098;15.474;2023-04-29T04:05:30;7.70;99.90
11762;DHT22;5938;47.098;15.474;2023-04-29T04:09:35;7.70;99.90
11762;DHT22;5938;47.098;15.474;2023-04-29T04:13:38;7.70;99.90
11762;DHT22;5938;47.098;15.474;2023-04-29T04:17:42;7.80;99.90
11762;DHT22;5938;47.098;15.474;2023-04-29T04:21:45;7.70;99.90
11762;DHT22;5938;47.098;15.474;2023-04-29T04:25:50;7.70;99.90
11762;DHT22;5938;47.098;15.474;2023-04-29T04:29:54;7.70;99.90
11762;DHT22;5938;47.098;15.474;2023-04-29T04:33:58;7.80;99.90
11762;DHT22;5938;47.098;15.474;2023-04-29T04:38:01;8.00;99.90
11762;DHT22;5938;47.098;15.474;2023-04-29T04:42:06;8.10;99.90
11762;DHT22;5938;47.098;15.474;2023-04-29T04:46:10;8.30;99.90
11762;DHT22;5938;47.098;15.474;2023-04-29T04:50:14;8.50;99.90
11762;DHT22;5938;47.098;15.474;2023-04-29T04:54:18;8.60;99.90
11762;DHT22;5938;47.098;15.474;2023-04-29T04:58:22;8.60;99.90
11762;DHT22;5938;47.098;15.474;2023-04-29T05:02:27;8.60;99.90
11762;DHT22;5938;47.098;15.474;2023-04-29T05:06:31;8.70;99.90
11762;DHT22;5938;47.098;15.474;2023-04-29T05:10:35;8.90;99.90
11762;DHT22;5938;47.098;15.474;2023-04-29T05:14:40;9.10;99.90
11762;DHT22;5938;47.098;15.474;2023-04-29T05:18:44;9.20;99.90
11762;DHT22;5938;47.098;15.474;2023-04-29T05:22:48;9.40;99.90
11762;DHT22;5938;47.098;15.474;2023-04-29T05:26:51;9.60;99.90
11762;DHT22;5938;47.098;15.474;2023-04-29T05:30:57;9.80;99.90
11762;DHT22;5938;47.098;15.474;2023-04-29T05:35:01;10.00;99.90
11762;DHT22;5938;47.098;15.474;2023-04-29T05:39:08;10.30;99.90
11762;DHT22;5938;47.098;15.474;2023-04-29T05:43:11;10.50;99.90
11762;DHT22;5938;47.098;15.474;2023-04-29T05:47:16;10.70;99.90
11762;DHT22;5938;47.098;15.474;2023-04-29T05:51:19;11.00;99.90
11762;DHT22;5938;47.098;15.474;2023-04-29T05:55:23;11.30;99.90
11762;DHT22;5938;47.098;15.474;2023-04-29T05:59:26;11.60;99.90
11762;DHT22;5938;47.098;15.474;2023-04-29T06:03:31;11.90;99.90
11762;DHT22;5938;47.098;15.474;2023-04-29T06:07:35;12.10;99.90
11762;DHT22;5938;47.098;15.474;2023-04-29T06:11:40;12.40;99.90
11762;DHT22;5938;47.098;15.474;2023-04-29T06:15:45;12.60;99.90
11762;DHT22;5938;47.098;15.474;2023-04-29T06:19:49;12.60;99.90
11762;DHT22;5938;47.098;15.474;2023-04-29T06:23:53;12.80;99.90
11762;DHT22;5938;47.098;15.474;2023-04-29T06:27:57;13.20;99.90
11762;DHT22;5938;47.098;15.474;2023-04-29T06:32:00;13.50;99.90
11762;DHT22;5938;47.098;15.474;2023-04-29T06:36:06;13.70;99.90
11762;DHT22;5938;47.098;15.474;2023-04-29T06:40:11;13.80;99.90
11762;DHT22;5938;47.098;15.474;2023-04-29T06:44:14;14.10;99.90
11762;DHT22;5938;47.098;15.474;2023-04-29T06:48:19;14.20;99.90
11762;DHT22;5938;47.098;15.474;2023-04-29T06:52:23;14.20;99.90
11762;DHT22;5938;47.098;15.474;2023-04-29T06:56:27;14.50;99.90
11762;DHT22;5938;47.098;15.474;2023-04-29T07:00:30;14.80;99.90
11762;DHT22;5938;47.098;15.474;2023-04-29T07:04:33;15.10;99.90
11762;DHT22;5938;47.098;15.474;2023-04-29T07:08:40;15.40;99.90
11762;DHT22;5938;47.098;15.474;2023-04-29T07:12:43;15.70;99.90
11762;DHT22;5938;47.098;15.474;2023-04-29T07:16:47;15.60;99.90
11762;DHT22;5938;47.098;15.474;2023-04-29T07:20:50;15.80;99.40
11762;DHT22;5938;47.098;15.474;2023-04-29T07:24:57;16.20;98.10
11762;DHT22;5938;47.098;15.474;2023-04-29T07:29:00;16.20;99.60
11762;DHT22;5938;47.098;15.474;2023-04-29T07:33:03;16.50;99.40
11762;DHT22;5938;47.098;15.474;2023-04-29T07:37:07;16.90;99.00
11762;DHT22;5938;47.098;15.474;2023-04-29T07:41:12;17.20;97.10
11762;DHT22;5938;47.098;15.474;2023-04-29T07:45:15;17.20;96.60
11762;DHT22;5938;47.098;15.474;2023-04-29T07:49:18;16.70;96.70
11762;DHT22;5938;47.098;15.474;2023-04-29T07:53:21;16.70;96.60
11762;DHT22;5938;47.098;15.474;2023-04-29T07:57:26;16.40;97.00
11762;DHT22;5938;47.098;15.474;2023-04-29T08:01:29;16.50;97.30
11762;DHT22;5938;47.098;15.474;2023-04-29T08:05:33;16.90;97.00
11762;DHT22;5938;47.098;15.474;2023-04-29T08:09:37;17.20;96.00
11762;DHT22;5938;47.098;15.474;2023-04-29T08:13:42;17.30;94.20
11762;DHT22;5938;47.098;15.474;2023-04-29T08:17:45;17.90;94.40
11762;DHT22;5938;47.098;15.474;2023-04-29T08:21:49;18.80;91.60
11762;DHT22;5938;47.098;15.474;2023-04-29T08:25:53;18.50;92.70
11762;DHT22;5938;47.098;15.474;2023-04-29T08:29:58;18.30;92.90
11762;DHT22;5938;47.098;15.474;2023-04-29T08:34:01;18.30;93.00
11762;DHT22;5938;47.098;15.474;2023-04-29T08:38:05;18.20;92.30
11762;DHT22;5938;47.098;15.474;2023-04-29T08:42:09;18.40;93.40
11762;DHT22;5938;47.098;15.474;2023-04-29T08:46:15;18.90;92.60
11762;DHT22;5938;47.098;15.474;2023-04-29T08:50:19;19.40;91.70
11762;DHT22;5938;47.098;15.474;2023-04-29T08:54:23;19.30;91.80
11762;DHT22;5938;47.098;15.474;2023-04-29T08:58:27;19.30;90.90
11762;DHT22;5938;47.098;15.474;2023-04-29T09:02:38;19.50;92.20
11762;DHT22;5938;47.098;15.474;2023-04-29T09:06:43;19.20;91.30
11762;DHT22;5938;47.098;15.474;2023-04-29T09:10:47;21.00;90.40
11762;DHT22;5938;47.098;15.474;2023-04-29T09:14:51;24.20;84.80
11762;DHT22;5938;47.098;15.474;2023-04-29T09:18:56;24.20;80.40
11762;DHT22;5938;47.098;15.474;2023-04-29T09:23:01;22.90;84.40
11762;DHT22;5938;47.098;15.474;2023-04-29T09:27:05;22.70;84.20
11762;DHT22;5938;47.098;15.474;2023-04-29T09:31:09;24.90;81.80
11762;DHT22;5938;47.098;15.474;2023-04-29T09:35:24;26.40;76.70
11762;DHT22;5938;47.098;15.474;2023-04-29T09:39:38;25.40;76.00
11762;DHT22;5938;47.098;15.474;2023-04-29T09:43:41;25.40;76.20
11762;DHT22;5938;47.098;15.474;2023-04-29T09:47:45;27.60;73.00
11762;DHT22;5938;47.098;15.474;2023-04-29T09:51:53;27.30;71.90
11762;DHT22;5938;47.098;15.474;2023-04-29T09:55:58;27.50;76.00
11762;DHT22;5938;47.098;15.474;2023-04-29T10:00:02;29.10;70.20
11762;DHT22;5938;47.098;15.474;2023-04-29T10:04:07;30.00;67.30
11762;DHT22;5938;47.098;15.474;2023-04-29T10:08:14;30.00;68.30
11762;DHT22;5938;47.098;15.474;2023-04-29T10:12:19;31.00;65.60
11762;DHT22;5938;47.098;15.474;2023-04-29T10:16:27;30.10;66.70
11762;DHT22;5938;47.098;15.474;2023-04-29T10:20:32;29.90;65.40
11762;DHT22;5938;47.098;15.474;2023-04-29T10:24:41;30.10;63.20
11762;DHT22;5938;47.098;15.474;2023-04-29T10:28:47;28.40;64.50
11762;DHT22;5938;47.098;15.474;2023-04-29T10:32:53;27.00;67.30
11762;DHT22;5938;47.098;15.474;2023-04-29T10:36:58;24.10;73.20
11762;DHT22;5938;47.098;15.474;2023-04-29T10:41:08;23.40;76.50
11762;DHT22;5938;47.098;15.474;2023-04-29T10:45:17;23.50;77.50
11762;DHT22;5938;47.098;15.474;2023-04-29T10:49:21;26.30;72.60
11762;DHT22;5938;47.098;15.474;2023-04-29T10:53:26;28.60;67.80
11762;DHT22;5938;47.098;15.474;2023-04-29T10:57:32;28.50;66.30
11762;DHT22;5938;47.098;15.474;2023-04-29T11:01:46;27.40;66.40
11762;DHT22;5938;47.098;15.474;2023-04-29T11:06:07;25.40;72.70
11762;DHT22;5938;47.098;15.474;2023-04-29T11:10:12;25.10;71.80
11762;DHT22;5938;47.098;15.474;2023-04-29T11:14:22;23.70;74.50
11762;DHT22;5938;47.098;15.474;2023-04-29T11:18:27;23.60;76.90
11762;DHT22;5938;47.098;15.474;2023-04-29T11:22:31;23.60;74.40
11762;DHT22;5938;47.098;15.474;2023-04-29T11:26:36;25.40;73.80
11762;DHT22;5938;47.098;15.474;2023-04-29T11:30:40;27.50;69.50
11762;DHT22;5938;47.098;15.474;2023-04-29T11:34:45;28.00;66.80
11762;DHT22;5938;47.098;15.474;2023-04-29T11:38:48;29.30;63.50
11762;DHT22;5938;47.098;15.474;2023-04-29T11:42:52;27.90;66.40
11762;DHT22;5938;47.098;15.474;2023-04-29T11:47:02;26.20;69.90
11762;DHT22;5938;47.098;15.474;2023-04-29T11:51:05;27.60;66.60
11762;DHT22;5938;47.098;15.474;2023-04-29T11:55:18;28.00;66.80
11762;DHT22;5938;47.098;15.474;2023-04-29T11:59:22;27.30;67.90
11762;DHT22;5938;47.098;15.474;2023-04-29T12:03:28;25.80;70.80
11762;DHT22;5938;47.098;15.474;2023-04-29T12:07:31;23.00;84.50
11762;DHT22;5938;47.098;15.474;2023-04-29T12:11:36;20.90;91.20
11762;DHT22;5938;47.098;15.474;2023-04-29T12:15:40;22.30;90.10
11762;DHT22;5938;47.098;15.474;2023-04-29T12:19:45;25.00;81.10
11762;DHT22;5938;47.098;15.474;2023-04-29T12:23:50;26.30;76.70
11762;DHT22;5938;47.098;15.474;2023-04-29T12:27:59;29.10;70.70
11762;DHT22;5938;47.098;15.474;2023-04-29T12:32:04;29.50;70.10
11762;DHT22;5938;47.098;15.474;2023-04-29T12:36:15;31.20;67.40
11762;DHT22;5938;47.098;15.474;2023-04-29T12:40:20;29.80;68.10
11762;DHT22;5938;47.098;15.474;2023-04-29T12:44:25;30.00;67.00
11762;DHT22;5938;47.098;15.474;2023-04-29T12:48:29;31.40;61.50
11762;DHT22;5938;47.098;15.474;2023-04-29T12:52:36;32.90;59.00
11762;DHT22;5938;47.098;15.474;2023-04-29T12:56:39;32.60;58.80
11762;DHT22;5938;47.098;15.474;2023-04-29T13:00:42;32.70;57.20
11762;DHT22;5938;47.098;15.474;2023-04-29T13:04:45;34.00;54.20
11762;DHT22;5938;47.098;15.474;2023-04-29T13:08:51;33.10;53.60
11762;DHT22;5938;47.098;15.474;2023-04-29T13:12:54;32.20;53.40
11762;DHT22;5938;47.098;15.474;2023-04-29T13:16:57;31.80;55.70
11762;DHT22;5938;47.098;15.474;2023-04-29T13:21:06;30.10;58.60
11762;DHT22;5938;47.098;15.474;2023-04-29T13:25:11;27.30;60.70
11762;DHT22;5938;47.098;15.474;2023-04-29T13:29:14;25.30;64.30
11762;DHT22;5938;47.098;15.474;2023-04-29T13:33:18;24.00;69.70
11762;DHT22;5938;47.098;15.474;2023-04-29T13:37:21;23.00;70.80
11762;DHT22;5938;47.098;15.474;2023-04-29T13:41:26;22.40;71.40
11762;DHT22;5938;47.098;15.474;2023-04-29T13:45:35;21.80;74.90
11762;DHT22;5938;47.098;15.474;2023-04-29T13:49:44;21.30;77.10
11762;DHT22;5938;47.098;15.474;2023-04-29T13:54:08;20.90;79.00
11762;DHT22;5938;47.098;15.474;2023-04-29T13:58:33;20.30;81.90
11762;DHT22;5938;47.098;15.474;2023-04-29T14:02:39;20.00;83.80
11762;DHT22;5938;47.098;15.474;2023-04-29T14:06:46;19.70;84.40
11762;DHT22;5938;47.098;15.474;2023-04-29T14:10:50;19.70;89.10
11762;DHT22;5938;47.098;15.474;2023-04-29T14:14:57;19.90;86.90
11762;DHT22;5938;47.098;15.474;2023-04-29T14:19:01;20.00;84.40
11762;DHT22;5938;47.098;15.474;2023-04-29T14:23:05;19.80;84.60
11762;DHT22;5938;47.098;15.474;2023-04-29T14:27:08;19.50;86.30
11762;DHT22;5938;47.098;15.474;2023-04-29T14:31:14;19.10;83.60
11762;DHT22;5938;47.098;15.474;2023-04-29T14:35:20;19.10;85.30
11762;DHT22;5938;47.098;15.474;2023-04-29T14:39:24;19.10;85.10
11762;DHT22;5938;47.098;15.474;2023-04-29T14:43:28;19.30;85.60
11762;DHT22;5938;47.098;15.474;2023-04-29T14:47:33;19.20;89.40
11762;DHT22;5938;47.098;15.474;2023-04-29T14:51:37;18.60;90.20
11762;DHT22;5938;47.098;15.474;2023-04-29T14:55:40;18.50;90.20
11762;DHT22;5938;47.098;15.474;2023-04-29T14:59:45;18.70;89.40
11762;DHT22;5938;47.098;15.474;2023-04-29T15:03:50;19.10;88.80
11762;DHT22;5938;47.098;15.474;2023-04-29T15:07:54;19.60;84.60
11762;DHT22;5938;47.098;15.474;2023-04-29T15:12:00;21.40;82.60
11762;DHT22;5938;47.098;15.474;2023-04-29T15:16:04;23.30;75.90
11762;DHT22;5938;47.098;15.474;2023-04-29T15:20:11;24.30;76.00
11762;DHT22;5938;47.098;15.474;2023-04-29T15:24:18;23.80;74.60
11762;DHT22;5938;47.098;15.474;2023-04-29T15:28:21;23.60;74.60
11762;DHT22;5938;47.098;15.474;2023-04-29T15:32:28;23.20;75.40
11762;DHT22;5938;47.098;15.474;2023-04-29T15:36:37;22.30;75.90
11762;DHT22;5938;47.098;15.474;2023-04-29T15:40:47;21.60;74.50
11762;DHT22;5938;47.098;15.474;2023-04-29T15:44:54;20.80;75.80
11762;DHT22;5938;47.098;15.474;2023-04-29T15:49:00;20.80;77.00
11762;DHT22;5938;47.098;15.474;2023-04-29T15:53:07;20.40;75.80
11762;DHT22;5938;47.098;15.474;2023-04-29T15:57:12;19.70;76.00
11762;DHT22;5938;47.098;15.474;2023-04-29T16:01:18;19.70;76.50
11762;DHT22;5938;47.098;15.474;2023-04-29T16:05:23;19.90;79.20
11762;DHT22;5938;47.098;15.474;2023-04-29T16:09:32;20.00;78.30
11762;DHT22;5938;47.098;15.474;2023-04-29T16:13:39;20.00;78.20
11762;DHT22;5938;47.098;15.474;2023-04-29T16:17:42;19.80;78.80
11762;DHT22;5938;47.098;15.474;2023-04-29T16:21:46;19.70;78.70
11762;DHT22;5938;47.098;15.474;2023-04-29T16:25:51;19.60;79.10
11762;DHT22;5938;47.098;15.474;2023-04-29T16:29:55;19.20;78.30
11762;DHT22;5938;47.098;15.474;2023-04-29T16:34:00;19.10;78.60
11762;DHT22;5938;47.098;15.474;2023-04-29T16:38:05;19.00;79.50
11762;DHT22;5938;47.098;15.474;2023-04-29T16:42:14;19.00;79.30
11762;DHT22;5938;47.098;15.474;2023-04-29T16:46:18;18.90;80.60
11762;DHT22;5938;47.098;15.474;2023-04-29T16:50:22;18.70;81.90
11762;DHT22;5938;47.098;15.474;2023-04-29T16:54:25;18.80;80.50
11762;DHT22;5938;47.098;15.474;2023-04-29T16:58:35;18.70;84.70
11762;DHT22;5938;47.098;15.474;2023-04-29T17:02:40;18.60;80.90
11762;DHT22;5938;47.098;15.474;2023-04-29T17:06:44;18.50;82.30
11762;DHT22;5938;47.098;15.474;2023-04-29T17:10:48;18.30;81.50
11762;DHT22;5938;47.098;15.474;2023-04-29T17:14:54;18.30;80.60
11762;DHT22;5938;47.098;15.474;2023-04-29T17:18:58;18.30;81.70
11762;DHT22;5938;47.098;15.474;2023-04-29T17:23:03;18.30;80.60
11762;DHT22;5938;47.098;15.474;2023-04-29T17:27:07;18.20;81.90
11762;DHT22;5938;47.098;15.474;2023-04-29T17:31:15;18.10;85.00
11762;DHT22;5938;47.098;15.474;2023-04-29T17:35:22;18.10;84.20
11762;DHT22;5938;47.098;15.474;2023-04-29T17:39:26;18.00;83.90
11762;DHT22;5938;47.098;15.474;2023-04-29T17:43:30;17.80;84.80
11762;DHT22;5938;47.098;15.474;2023-04-29T17:47:37;17.80;85.40
11762;DHT22;5938;47.098;15.474;2023-04-29T17:51:43;17.60;83.70
11762;DHT22;5938;47.098;15.474;2023-04-29T17:55:48;17.50;86.50
11762;DHT22;5938;47.098;15.474;2023-04-29T17:59:53;17.30;85.20
11762;DHT22;5938;47.098;15.474;2023-04-29T18:04:00;17.30;85.80
11762;DHT22;5938;47.098;15.474;2023-04-29T18:08:05;17.20;86.40
11762;DHT22;5938;47.098;15.474;2023-04-29T18:12:09;17.10;89.10
11762;DHT22;5938;47.098;15.474;2023-04-29T18:16:13;16.90;90.10
11762;DHT22;5938;47.098;15.474;2023-04-29T18:20:19;16.60;91.00
11762;DHT22;5938;47.098;15.474;2023-04-29T18:24:25;16.20;91.90
11762;DHT22;5938;47.098;15.474;2023-04-29T18:28:31;16.00;92.20
11762;DHT22;5938;47.098;15.474;2023-04-29T18:32:39;15.70;92.80
11762;DHT22;5938;47.098;15.474;2023-04-29T18:36:46;15.60;92.70
11762;DHT22;5938;47.098;15.474;2023-04-29T18:40:55;15.40;93.20
11762;DHT22;5938;47.098;15.474;2023-04-29T18:44:59;15.10;93.70
11762;DHT22;5938;47.098;15.474;2023-04-29T18:49:06;14.80;94.10
11762;DHT22;5938;47.098;15.474;2023-04-29T18:53:19;14.50;94.90
11762;DHT22;5938;47.098;15.474;2023-04-29T18:57:27;14.20;95.50
11762;DHT22;5938;47.098;15.474;2023-04-29T19:01:34;13.90;97.00
11762;DHT22;5938;47.098;15.474;2023-04-29T19:05:46;13.70;97.00
11762;DHT22;5938;47.098;15.474;2023-04-29T19:10:02;13.60;97.10
11762;DHT22;5938;47.098;15.474;2023-04-29T19:14:11;13.50;97.30
11762;DHT22;5938;47.098;15.474;2023-04-29T19:18:30;13.30;98.40
11762;DHT22;5938;47.098;15.474;2023-04-29T19:22:39;13.10;98.60
11762;DHT22;5938;47.098;15.474;2023-04-29T19:26:52;12.90;99.80
11762;DHT22;5938;47.098;15.474;2023-04-29T19:30:58;12.80;99.90
11762;DHT22;5938;47.098;15.474;2023-04-29T19:35:02;12.70;99.90
11762;DHT22;5938;47.098;15.474;2023-04-29T19:39:07;12.70;99.90
11762;DHT22;5938;47.098;15.474;2023-04-29T19:43:13;12.70;99.90
11762;DHT22;5938;47.098;15.474;2023-04-29T19:47:18;12.70;99.90
11762;DHT22;5938;47.098;15.474;2023-04-29T19:51:23;12.90;99.90
11762;DHT22;5938;47.098;15.474;2023-04-29T19:55:29;12.90;99.90
11762;DHT22;5938;47.098;15.474;2023-04-29T19:59:35;13.10;99.90
11762;DHT22;5938;47.098;15.474;2023-04-29T20:03:39;13.10;99.90
11762;DHT22;5938;47.098;15.474;2023-04-29T20:07:42;13.40;99.90
11762;DHT22;5938;47.098;15.474;2023-04-29T20:11:46;13.50;99.90
11762;DHT22;5938;47.098;15.474;2023-04-29T20:15:51;13.70;99.90
11762;DHT22;5938;47.098;15.474;2023-04-29T20:19:55;13.90;99.90
11762;DHT22;5938;47.098;15.474;2023-04-29T20:23:59;14.10;99.90
11762;DHT22;5938;47.098;15.474;2023-04-29T20:28:03;14.20;99.90
11762;DHT22;5938;47.098;15.474;2023-04-29T20:32:10;14.20;99.90
11762;DHT22;5938;47.098;15.474;2023-04-29T20:36:16;14.20;99.90
11762;DHT22;5938;47.098;15.474;2023-04-29T20:40:20;14.20;99.90
11762;DHT22;5938;47.098;15.474;2023-04-29T20:44:24;14.20;99.90
11762;DHT22;5938;47.098;15.474;2023-04-29T20:48:30;14.00;99.90
11762;DHT22;5938;47.098;15.474;2023-04-29T20:52:34;13.80;99.90
11762;DHT22;5938;47.098;15.474;2023-04-29T20:56:38;13.50;99.90
11762;DHT22;5938;47.098;15.474;2023-04-29T21:00:41;13.20;99.90
11762;DHT22;5938;47.098;15.474;2023-04-29T21:04:46;12.90;99.90
11762;DHT22;5938;47.098;15.474;2023-04-29T21:08:50;12.70;99.90
11762;DHT22;5938;47.098;15.474;2023-04-29T21:12:53;12.40;99.90
11762;DHT22;5938;47.098;15.474;2023-04-29T21:16:56;12.20;99.90
11762;DHT22;5938;47.098;15.474;2023-04-29T21:21:01;12.00;99.90
11762;DHT22;5938;47.098;15.474;2023-04-29T21:25:05;11.90;99.90
11762;DHT22;5938;47.098;15.474;2023-04-29T21:29:08;11.90;99.90
11762;DHT22;5938;47.098;15.474;2023-04-29T21:33:11;11.90;99.90
11762;DHT22;5938;47.098;15.474;2023-04-29T21:37:16;11.80;99.90
11762;DHT22;5938;47.098;15.474;2023-04-29T21:41:23;11.70;99.90
11762;DHT22;5938;47.098;15.474;2023-04-29T21:45:28;11.60;99.90
11762;DHT22;5938;47.098;15.474;2023-04-29T21:49:31;11.60;99.90
11762;DHT22;5938;47.098;15.474;2023-04-29T21:53:36;11.40;99.90
11762;DHT22;5938;47.098;15.474;2023-04-29T21:57:40;11.30;99.90
11762;DHT22;5938;47.098;15.474;2023-04-29T22:01:46;11.20;99.90
11762;DHT22;5938;47.098;15.474;2023-04-29T22:06:01;11.10;99.90
11762;DHT22;5938;47.098;15.474;2023-04-29T22:10:07;11.00;99.90
11762;DHT22;5938;47.098;15.474;2023-04-29T22:14:10;10.90;99.90
11762;DHT22;5938;47.098;15.474;2023-04-29T22:18:13;10.70;99.90
11762;DHT22;5938;47.098;15.474;2023-04-29T22:22:17;10.50;99.90
11762;DHT22;5938;47.098;15.474;2023-04-29T22:26:21;10.40;99.90
11762;DHT22;5938;47.098;15.474;2023-04-29T22:30:26;10.40;99.90
11762;DHT22;5938;47.098;15.474;2023-04-29T22:34:29;10.30;99.90
11762;DHT22;5938;47.098;15.474;2023-04-29T22:38:33;10.20;99.90
11762;DHT22;5938;47.098;15.474;2023-04-29T22:42:39;10.10;99.90
11762;DHT22;5938;47.098;15.474;2023-04-29T22:46:43;10.00;99.90
11762;DHT22;5938;47.098;15.474;2023-04-29T22:50:51;9.90;99.90
11762;DHT22;5938;47.098;15.474;2023-04-29T22:54:57;9.70;99.90
11762;DHT22;5938;47.098;15.474;2023-04-29T22:59:02;9.60;99.90
11762;DHT22;5938;47.098;15.474;2023-04-29T23:03:07;9.60;99.90
11762;DHT22;5938;47.098;15.474;2023-04-29T23:07:10;9.60;99.90
11762;DHT22;5938;47.098;15.474;2023-04-29T23:11:15;9.50;99.90
11762;DHT22;5938;47.098;15.474;2023-04-29T23:15:20;9.40;99.90
11762;DHT22;5938;47.098;15.474;2023-04-29T23:19:24;9.30;99.90
11762;DHT22;5938;47.098;15.474;2023-04-29T23:23:27;9.30;99.90
11762;DHT22;5938;47.098;15.474;2023-04-29T23:27:31;9.20;99.90
11762;DHT22;5938;47.098;15.474;2023-04-29T23:31:35;9.10;99.90
11762;DHT22;5938;47.098;15.474;2023-04-29T23:35:38;9.10;99.90
11762;DHT22;5938;47.098;15.474;2023-04-29T23:39:42;9.20;99.90
11762;DHT22;5938;47.098;15.474;2023-04-29T23:43:45;9.20;99.90
11762;DHT22;5938;47.098;15.474;2023-04-29T23:47:50;9.20;99.90
11762;DHT22;5938;47.098;15.474;2023-04-29T23:51:53;9.20;99.90
11762;DHT22;5938;47.098;15.474;2023-04-29T23:55:57;9.30;99.90
